sensor_id;sensor_type;location;lat;lon;timestamp;temperature;humidity
1015;DHT22;8170;48.118;11.628;2022-08-21T00:00:17;17.00;99.90
1015;DHT22;8170;48.118;11.628;2022-08-21T00:01:24;16.90;99.90
1015;DHT22;8170;48.118;11.628;2022-08-21T00:02:28;16.90;99.90
1015;DHT22;8170;48.118;11.628;2022-08-21T00:03:32;16.90;99.90
1015;DHT22;8170;48.118;11.628;2022-08-21T00:04:34;16.90;99.90
1015;DHT22;8170;48.118;11.628;2022-08-21T00:05:50;16.90;99.90
1015;DHT22;8170;48.118;11.628;2022-08-21T00:06:52;16.90;99.90
1015;DHT22;8170;48.118;11.628;2022-08-21T00:07:56;16.90;99.90
1015;DHT22;8170;48.118;11.628;2022-08-21T00:08:58;16.80;99.90
1015;DHT22;8170;48.118;11.628;2022-08-21T00:10:09;16.80;99.90
1015;DHT22;8170;48.118;11.628;2022-08-21T00:11:11;16.80;99.90
1015;DHT22;8170;48.118;11.628;2022-08-21T00:12:15;16.80;99.90
1015;DHT22;8170;48.118;11.628;2022-08-21T00:13:18;16.80;99.90
1015;DHT22;8170;48.118;11.628;2022-08-21T00:14:22;16.80;99.90
1015;DHT22;8170;48.118;11.628;2022-08-21T00:15:27;16.70;99.90
1015;DHT22;8170;48.118;11.628;2022-08-21T00:16:30;16.70;99.90
1015;DHT22;8170;48.118;11.628;2022-08-21T00:17:33;16.70;99.90
1015;DHT22;8170;48.118;11.628;2022-08-21T00:18:36;16.70;99.90
1015;DHT22;8170;48.118;11.628;2022-08-21T00:19:38;16.70;99.90
1015;DHT22;8170;48.118;11.628;2022-08-21T00:20:43;16.60;99.90
1015;DHT22;8170;48.118;11.628;2022-08-21T00:21:45;16.60;99.90
1015;DHT22;8170;48.118;11.628;2022-08-21T00:22:49;16.60;99.90
1015;DHT22;8170;48.118;11.628;2022-08-21T00:23:51;16.60;99.90
1015;DHT22;8170;48.118;11.628;2022-08-21T00:24:54;16.60;99.90
1015;DHT22;8170;48.118;11.628;2022-08-21T00:25:58;16.60;99.90
1015;DHT22;8170;48.118;11.628;2022-08-21T00:27:01;16.60;99.90
1015;DHT22;8170;48.118;11.628;2022-08-21T00:28:03;16.50;99.90
1015;DHT22;8170;48.118;11.628;2022-08-21T00:29:08;16.50;99.90
1015;DHT22;8170;48.118;11.628;2022-08-21T00:30:12;16.50;99.90
1015;DHT22;8170;48.118;11.628;2022-08-21T00:31:24;16.40;99.90
1015;DHT22;8170;48.118;11.628;2022-08-21T00:32:27;16.50;99.90
1015;DHT22;8170;48.118;11.628;2022-08-21T00:33:30;16.40;99.90
1015;DHT22;8170;48.118;11.628;2022-08-21T00:34:32;16.40;99.90
1015;DHT22;8170;48.118;11.628;2022-08-21T00:35:38;16.40;99.90
1015;DHT22;8170;48.118;11.628;2022-08-21T00:36:41;16.40;99.90
1015;DHT22;8170;48.118;11.628;2022-08-21T00:37:44;16.40;99.90
1015;DHT22;8170;48.118;11.628;2022-08-21T00:38:47;16.40;99.90
1015;DHT22;8170;48.118;11.628;2022-08-21T00:39:49;16.40;99.90
1015;DHT22;8170;48.118;11.628;2022-08-21T00:40:55;16.40;99.90
1015;DHT22;8170;48.118;11.628;2022-08-21T00:42:01;16.40;99.90
1015;DHT22;8170;48.118;11.628;2022-08-21T00:43:07;16.30;99.90
1015;DHT22;8170;48.118;11.628;2022-08-21T00:44:12;16.40;99.90
1015;DHT22;8170;48.118;11.628;2022-08-21T00:45:19;16.40;99.90
1015;DHT22;8170;48.118;11.628;2022-08-21T00:46:21;16.40;99.90
1015;DHT22;8170;48.118;11.628;2022-08-21T00:47:29;16.40;99.90
1015;DHT22;8170;48.118;11.628;2022-08-21T00:48:32;16.40;99.90
1015;DHT22;8170;48.118;11.628;2022-08-21T00:49:35;16.40;99.90
1015;DHT22;8170;48.118;11.628;2022-08-21T00:50:42;16.40;99.90
1015;DHT22;8170;48.118;11.628;2022-08-21T00:51:49;16.40;99.90
1015;DHT22;8170;48.118;11.628;2022-08-21T00:52:52;16.30;99.90
1015;DHT22;8170;48.118;11.628;2022-08-21T00:53:57;16.30;99.90
1015;DHT22;8170;48.118;11.628;2022-08-21T00:55:06;16.30;99.90
1015;DHT22;8170;48.118;11.628;2022-08-21T00:56:11;16.30;99.90
1015;DHT22;8170;48.118;11.628;2022-08-21T00:57:19;16.30;99.90
1015;DHT22;8170;48.118;11.628;2022-08-21T00:58:26;16.30;99.90
1015;DHT22;8170;48.118;11.628;2022-08-21T00:59:32;16.20;99.90
1015;DHT22;8170;48.118;11.628;2022-08-21T01:00:39;16.20;99.90
1015;DHT22;8170;48.118;11.628;2022-08-21T01:01:42;16.30;99.90
1015;DHT22;8170;48.118;11.628;2022-08-21T01:02:45;16.20;99.90
1015;DHT22;8170;48.118;11.628;2022-08-21T01:03:47;16.20;99.90
1015;DHT22;8170;48.118;11.628;2022-08-21T01:04:51;16.20;99.90
1015;DHT22;8170;48.118;11.628;2022-08-21T01:05:53;16.20;99.90
1015;DHT22;8170;48.118;11.628;2022-08-21T01:06:57;16.20;99.90
1015;DHT22;8170;48.118;11.628;2022-08-21T01:07:59;16.20;99.90
1015;DHT22;8170;48.118;11.628;2022-08-21T01:09:03;16.20;99.90
1015;DHT22;8170;48.118;11.628;2022-08-21T01:10:06;16.20;99.90
1015;DHT22;8170;48.118;11.628;2022-08-21T01:11:17;16.20;99.90
1015;DHT22;8170;48.118;11.628;2022-08-21T01:12:21;16.20;99.90
1015;DHT22;8170;48.118;11.628;2022-08-21T01:13:26;16.10;99.90
1015;DHT22;8170;48.118;11.628;2022-08-21T01:14:29;16.10;99.90
1015;DHT22;8170;48.118;11.628;2022-08-21T01:15:35;16.10;99.90
1015;DHT22;8170;48.118;11.628;2022-08-21T01:16:40;16.10;99.90
1015;DHT22;8170;48.118;11.628;2022-08-21T01:17:44;16.10;99.90
1015;DHT22;8170;48.118;11.628;2022-08-21T01:18:47;16.10;99.90
1015;DHT22;8170;48.118;11.628;2022-08-21T01:19:50;16.10;99.90
1015;DHT22;8170;48.118;11.628;2022-08-21T01:21:12;16.00;99.90
1015;DHT22;8170;48.118;11.628;2022-08-21T01:22:15;16.00;99.90
1015;DHT22;8170;48.118;11.628;2022-08-21T01:23:17;16.00;99.90
1015;DHT22;8170;48.118;11.628;2022-08-21T01:24:21;16.00;99.90
1015;DHT22;8170;48.118;11.628;2022-08-21T01:25:24;16.00;99.90
1015;DHT22;8170;48.118;11.628;2022-08-21T01:26:29;16.00;99.90
1015;DHT22;8170;48.118;11.628;2022-08-21T01:27:35;16.00;99.90
1015;DHT22;8170;48.118;11.628;2022-08-21T01:28:42;15.90;99.90
1015;DHT22;8170;48.118;11.628;2022-08-21T01:29:47;15.90;99.90
1015;DHT22;8170;48.118;11.628;2022-08-21T01:30:53;15.90;99.90
1015;DHT22;8170;48.118;11.628;2022-08-21T01:31:56;15.90;99.90
1015;DHT22;8170;48.118;11.628;2022-08-21T01:33:00;15.90;99.90
1015;DHT22;8170;48.118;11.628;2022-08-21T01:34:02;15.90;99.90
1015;DHT22;8170;48.118;11.628;2022-08-21T01:35:06;15.90;99.90
1015;DHT22;8170;48.118;11.628;2022-08-21T01:36:10;15.90;99.90
1015;DHT22;8170;48.118;11.628;2022-08-21T01:37:14;15.90;99.90
1015;DHT22;8170;48.118;11.628;2022-08-21T01:38:18;15.90;99.90
1015;DHT22;8170;48.118;11.628;2022-08-21T01:39:22;15.90;99.90
1015;DHT22;8170;48.118;11.628;2022-08-21T01:40:24;15.80;99.90
1015;DHT22;8170;48.118;11.628;2022-08-21T01:41:27;15.80;99.90
1015;DHT22;8170;48.118;11.628;2022-08-21T01:42:29;15.80;99.90
1015;DHT22;8170;48.118;11.628;2022-08-21T01:43:33;15.80;99.90
1015;DHT22;8170;48.118;11.628;2022-08-21T01:44:41;15.80;99.90
1015;DHT22;8170;48.118;11.628;2022-08-21T01:45:44;15.80;99.90
1015;DHT22;8170;48.118;11.628;2022-08-21T01:46:46;15.80;99.90
1015;DHT22;8170;48.118;11.628;2022-08-21T01:47:49;15.80;99.90
1015;DHT22;8170;48.118;11.628;2022-08-21T01:48:52;15.80;99.90
1015;DHT22;8170;48.118;11.628;2022-08-21T01:49:55;15.80;99.90
1015;DHT22;8170;48.118;11.628;2022-08-21T01:50:58;15.70;99.90
1015;DHT22;8170;48.118;11.628;2022-08-21T01:52:03;15.70;99.90
1015;DHT22;8170;48.118;11.628;2022-08-21T01:53:05;15.70;99.90
1015;DHT22;8170;48.118;11.628;2022-08-21T01:54:09;15.70;99.90
1015;DHT22;8170;48.118;11.628;2022-08-21T01:55:15;15.70;99.90
1015;DHT22;8170;48.118;11.628;2022-08-21T01:56:19;15.70;99.90
1015;DHT22;8170;48.118;11.628;2022-08-21T01:57:22;15.70;99.90
1015;DHT22;8170;48.118;11.628;2022-08-21T01:58:27;15.60;99.90
1015;DHT22;8170;48.118;11.628;2022-08-21T01:59:29;15.70;99.90
1015;DHT22;8170;48.118;11.628;2022-08-21T02:00:32;15.60;99.90
1015;DHT22;8170;48.118;11.628;2022-08-21T02:01:35;15.70;99.90
1015;DHT22;8170;48.118;11.628;2022-08-21T02:02:41;15.60;99.90
1015;DHT22;8170;48.118;11.628;2022-08-21T02:03:44;15.60;99.90
1015;DHT22;8170;48.118;11.628;2022-08-21T02:04:47;15.60;99.90
1015;DHT22;8170;48.118;11.628;2022-08-21T02:05:49;15.60;99.90
1015;DHT22;8170;48.118;11.628;2022-08-21T02:06:52;15.60;99.90
1015;DHT22;8170;48.118;11.628;2022-08-21T02:07:56;15.60;99.90
1015;DHT22;8170;48.118;11.628;2022-08-21T02:08:59;15.60;99.90
1015;DHT22;8170;48.118;11.628;2022-08-21T02:10:01;15.60;99.90
1015;DHT22;8170;48.118;11.628;2022-08-21T02:11:05;15.50;99.90
1015;DHT22;8170;48.118;11.628;2022-08-21T02:12:07;15.50;99.90
1015;DHT22;8170;48.118;11.628;2022-08-21T02:13:11;15.50;99.90
1015;DHT22;8170;48.118;11.628;2022-08-21T02:14:15;15.50;99.90
1015;DHT22;8170;48.118;11.628;2022-08-21T02:15:33;15.50;99.90
1015;DHT22;8170;48.118;11.628;2022-08-21T02:16:38;15.50;99.90
1015;DHT22;8170;48.118;11.628;2022-08-21T02:17:42;15.50;99.90
1015;DHT22;8170;48.118;11.628;2022-08-21T02:18:46;15.50;99.90
1015;DHT22;8170;48.118;11.628;2022-08-21T02:19:48;15.50;99.90
1015;DHT22;8170;48.118;11.628;2022-08-21T02:20:52;15.40;99.90
1015;DHT22;8170;48.118;11.628;2022-08-21T02:21:57;15.50;99.90
1015;DHT22;8170;48.118;11.628;2022-08-21T02:23:01;15.40;99.90
1015;DHT22;8170;48.118;11.628;2022-08-21T02:24:04;15.40;99.90
1015;DHT22;8170;48.118;11.628;2022-08-21T02:25:08;15.40;99.90
1015;DHT22;8170;48.118;11.628;2022-08-21T02:26:10;15.40;99.90
1015;DHT22;8170;48.118;11.628;2022-08-21T02:27:13;15.40;99.90
1015;DHT22;8170;48.118;11.628;2022-08-21T02:28:15;15.40;99.90
1015;DHT22;8170;48.118;11.628;2022-08-21T02:29:19;15.40;99.90
1015;DHT22;8170;48.118;11.628;2022-08-21T02:30:24;15.40;99.90
1015;DHT22;8170;48.118;11.628;2022-08-21T02:31:27;15.40;99.90
1015;DHT22;8170;48.118;11.628;2022-08-21T02:32:30;15.40;99.90
1015;DHT22;8170;48.118;11.628;2022-08-21T02:33:34;15.40;99.90
1015;DHT22;8170;48.118;11.628;2022-08-21T02:34:36;15.30;99.90
1015;DHT22;8170;48.118;11.628;2022-08-21T02:35:41;15.30;99.90
1015;DHT22;8170;48.118;11.628;2022-08-21T02:36:43;15.30;99.90
1015;DHT22;8170;48.118;11.628;2022-08-21T02:38:04;15.20;99.90
1015;DHT22;8170;48.118;11.628;2022-08-21T02:39:06;15.20;99.90
1015;DHT22;8170;48.118;11.628;2022-08-21T02:40:11;15.20;99.90
1015;DHT22;8170;48.118;11.628;2022-08-21T02:41:15;15.20;99.90
1015;DHT22;8170;48.118;11.628;2022-08-21T02:42:18;15.10;99.90
1015;DHT22;8170;48.118;11.628;2022-08-21T02:43:22;15.10;99.90
1015;DHT22;8170;48.118;11.628;2022-08-21T02:44:25;15.20;99.90
1015;DHT22;8170;48.118;11.628;2022-08-21T02:45:36;15.20;99.90
1015;DHT22;8170;48.118;11.628;2022-08-21T02:46:40;15.10;99.90
1015;DHT22;8170;48.118;11.628;2022-08-21T02:47:47;15.10;99.90
1015;DHT22;8170;48.118;11.628;2022-08-21T02:48:51;15.10;99.90
1015;DHT22;8170;48.118;11.628;2022-08-21T02:49:53;15.10;99.90
1015;DHT22;8170;48.118;11.628;2022-08-21T02:50:58;15.10;99.90
1015;DHT22;8170;48.118;11.628;2022-08-21T02:52:00;15.10;99.90
1015;DHT22;8170;48.118;11.628;2022-08-21T02:53:06;15.10;99.90
1015;DHT22;8170;48.118;11.628;2022-08-21T02:54:08;15.10;99.90
1015;DHT22;8170;48.118;11.628;2022-08-21T02:55:12;15.00;99.90
1015;DHT22;8170;48.118;11.628;2022-08-21T02:56:17;15.10;99.90
1015;DHT22;8170;48.118;11.628;2022-08-21T02:57:21;15.00;99.90
1015;DHT22;8170;48.118;11.628;2022-08-21T02:58:26;15.00;99.90
1015;DHT22;8170;48.118;11.628;2022-08-21T02:59:29;15.00;99.90
1015;DHT22;8170;48.118;11.628;2022-08-21T03:00:32;15.00;99.90
1015;DHT22;8170;48.118;11.628;2022-08-21T03:01:36;15.00;99.90
1015;DHT22;8170;48.118;11.628;2022-08-21T03:02:40;15.00;99.90
1015;DHT22;8170;48.118;11.628;2022-08-21T03:03:44;15.00;99.90
1015;DHT22;8170;48.118;11.628;2022-08-21T03:04:48;15.00;99.90
1015;DHT22;8170;48.118;11.628;2022-08-21T03:05:51;15.00;99.90
1015;DHT22;8170;48.118;11.628;2022-08-21T03:06:55;15.00;99.90
1015;DHT22;8170;48.118;11.628;2022-08-21T03:07:57;15.00;99.90
1015;DHT22;8170;48.118;11.628;2022-08-21T03:09:03;14.90;99.90
1015;DHT22;8170;48.118;11.628;2022-08-21T03:10:07;14.90;99.90
1015;DHT22;8170;48.118;11.628;2022-08-21T03:11:09;14.90;99.90
1015;DHT22;8170;48.118;11.628;2022-08-21T03:12:14;14.90;99.90
1015;DHT22;8170;48.118;11.628;2022-08-21T03:13:18;14.90;99.90
1015;DHT22;8170;48.118;11.628;2022-08-21T03:14:22;14.90;99.90
1015;DHT22;8170;48.118;11.628;2022-08-21T03:15:24;14.90;99.90
1015;DHT22;8170;48.118;11.628;2022-08-21T03:16:27;14.90;99.90
1015;DHT22;8170;48.118;11.628;2022-08-21T03:17:36;14.90;99.90
1015;DHT22;8170;48.118;11.628;2022-08-21T03:18:39;14.90;99.90
1015;DHT22;8170;48.118;11.628;2022-08-21T03:19:41;14.80;99.90
1015;DHT22;8170;48.118;11.628;2022-08-21T03:20:45;14.90;99.90
1015;DHT22;8170;48.118;11.628;2022-08-21T03:21:47;14.90;99.90
1015;DHT22;8170;48.118;11.628;2022-08-21T03:22:51;14.90;99.90
1015;DHT22;8170;48.118;11.628;2022-08-21T03:23:57;14.90;99.90
1015;DHT22;8170;48.118;11.628;2022-08-21T03:25:07;14.90;99.90
1015;DHT22;8170;48.118;11.628;2022-08-21T03:26:13;14.80;99.90
1015;DHT22;8170;48.118;11.628;2022-08-21T03:27:16;14.80;99.90
1015;DHT22;8170;48.118;11.628;2022-08-21T03:28:21;14.80;99.90
1015;DHT22;8170;48.118;11.628;2022-08-21T03:29:24;14.80;99.90
1015;DHT22;8170;48.118;11.628;2022-08-21T03:30:27;14.80;99.90
1015;DHT22;8170;48.118;11.628;2022-08-21T03:31:30;14.80;99.90
1015;DHT22;8170;48.118;11.628;2022-08-21T03:32:33;14.80;99.90
1015;DHT22;8170;48.118;11.628;2022-08-21T03:33:37;14.80;99.90
1015;DHT22;8170;48.118;11.628;2022-08-21T03:34:40;14.80;99.90
1015;DHT22;8170;48.118;11.628;2022-08-21T03:35:46;14.80;99.90
1015;DHT22;8170;48.118;11.628;2022-08-21T03:36:49;14.80;99.90
1015;DHT22;8170;48.118;11.628;2022-08-21T03:37:52;14.80;99.90
1015;DHT22;8170;48.118;11.628;2022-08-21T03:38:55;14.80;99.90
1015;DHT22;8170;48.118;11.628;2022-08-21T03:39:58;14.80;99.90
1015;DHT22;8170;48.118;11.628;2022-08-21T03:41:03;14.80;99.90
1015;DHT22;8170;48.118;11.628;2022-08-21T03:42:09;14.80;99.90
1015;DHT22;8170;48.118;11.628;2022-08-21T03:43:11;14.80;99.90
1015;DHT22;8170;48.118;11.628;2022-08-21T03:44:14;14.80;99.90
1015;DHT22;8170;48.118;11.628;2022-08-21T03:45:19;14.80;99.90
1015;DHT22;8170;48.118;11.628;2022-08-21T03:46:21;14.80;99.90
1015;DHT22;8170;48.118;11.628;2022-08-21T03:47:24;14.80;99.90
1015;DHT22;8170;48.118;11.628;2022-08-21T03:48:26;14.80;99.90
1015;DHT22;8170;48.118;11.628;2022-08-21T03:49:30;14.80;99.90
1015;DHT22;8170;48.118;11.628;2022-08-21T03:50:34;14.80;99.90
1015;DHT22;8170;48.118;11.628;2022-08-21T03:51:42;14.80;99.90
1015;DHT22;8170;48.118;11.628;2022-08-21T03:52:44;14.70;99.90
1015;DHT22;8170;48.118;11.628;2022-08-21T03:53:47;14.70;99.90
1015;DHT22;8170;48.118;11.628;2022-08-21T03:54:50;14.70;99.90
1015;DHT22;8170;48.118;11.628;2022-08-21T03:55:52;14.70;99.90
1015;DHT22;8170;48.118;11.628;2022-08-21T03:56:57;14.70;99.90
1015;DHT22;8170;48.118;11.628;2022-08-21T03:57:59;14.70;99.90
1015;DHT22;8170;48.118;11.628;2022-08-21T03:59:18;14.70;99.90
1015;DHT22;8170;48.118;11.628;2022-08-21T04:00:22;14.70;99.90
1015;DHT22;8170;48.118;11.628;2022-08-21T04:01:25;14.70;99.90
1015;DHT22;8170;48.118;11.628;2022-08-21T04:02:28;14.70;99.90
1015;DHT22;8170;48.118;11.628;2022-08-21T04:03:30;14.70;99.90
1015;DHT22;8170;48.118;11.628;2022-08-21T04:04:34;14.70;99.90
1015;DHT22;8170;48.118;11.628;2022-08-21T04:05:37;14.70;99.90
1015;DHT22;8170;48.118;11.628;2022-08-21T04:06:40;14.70;99.90
1015;DHT22;8170;48.118;11.628;2022-08-21T04:07:43;14.70;99.90
1015;DHT22;8170;48.118;11.628;2022-08-21T04:08:46;14.70;99.90
1015;DHT22;8170;48.118;11.628;2022-08-21T04:09:49;14.70;99.90
1015;DHT22;8170;48.118;11.628;2022-08-21T04:10:54;14.70;99.90
1015;DHT22;8170;48.118;11.628;2022-08-21T04:11:59;14.70;99.90
1015;DHT22;8170;48.118;11.628;2022-08-21T04:13:02;14.60;99.90
1015;DHT22;8170;48.118;11.628;2022-08-21T04:14:06;14.60;99.90
1015;DHT22;8170;48.118;11.628;2022-08-21T04:15:09;14.60;99.90
1015;DHT22;8170;48.118;11.628;2022-08-21T04:16:13;14.60;99.90
1015;DHT22;8170;48.118;11.628;2022-08-21T04:17:15;14.60;99.90
1015;DHT22;8170;48.118;11.628;2022-08-21T04:18:18;14.60;99.90
1015;DHT22;8170;48.118;11.628;2022-08-21T04:19:20;14.60;99.90
1015;DHT22;8170;48.118;11.628;2022-08-21T04:20:26;14.60;99.90
1015;DHT22;8170;48.118;11.628;2022-08-21T04:21:28;14.60;99.90
1015;DHT22;8170;48.118;11.628;2022-08-21T04:22:32;14.60;99.90
1015;DHT22;8170;48.118;11.628;2022-08-21T04:23:34;14.60;99.90
1015;DHT22;8170;48.118;11.628;2022-08-21T04:24:37;14.60;99.90
1015;DHT22;8170;48.118;11.628;2022-08-21T04:25:39;14.60;99.90
1015;DHT22;8170;48.118;11.628;2022-08-21T04:26:43;14.60;99.90
1015;DHT22;8170;48.118;11.628;2022-08-21T04:27:47;14.60;99.90
1015;DHT22;8170;48.118;11.628;2022-08-21T04:28:50;14.60;99.90
1015;DHT22;8170;48.118;11.628;2022-08-21T04:29:52;14.60;99.90
1015;DHT22;8170;48.118;11.628;2022-08-21T04:30:55;14.60;99.90
1015;DHT22;8170;48.118;11.628;2022-08-21T04:31:58;14.60;99.90
1015;DHT22;8170;48.118;11.628;2022-08-21T04:33:01;14.70;99.90
1015;DHT22;8170;48.118;11.628;2022-08-21T04:34:05;14.70;99.90
1015;DHT22;8170;48.118;11.628;2022-08-21T04:35:10;14.70;99.90
1015;DHT22;8170;48.118;11.628;2022-08-21T04:36:12;14.70;99.90
1015;DHT22;8170;48.118;11.628;2022-08-21T04:37:15;14.70;99.90
1015;DHT22;8170;48.118;11.628;2022-08-21T04:38:18;14.70;99.90
1015;DHT22;8170;48.118;11.628;2022-08-21T04:39:22;14.70;99.90
1015;DHT22;8170;48.118;11.628;2022-08-21T04:40:30;14.70;99.90
1015;DHT22;8170;48.118;11.628;2022-08-21T04:41:33;14.70;99.90
1015;DHT22;8170;48.118;11.628;2022-08-21T04:42:41;14.80;99.90
1015;DHT22;8170;48.118;11.628;2022-08-21T04:43:46;14.70;99.90
1015;DHT22;8170;48.118;11.628;2022-08-21T04:44:50;14.80;99.90
1015;DHT22;8170;48.118;11.628;2022-08-21T04:45:52;14.70;99.90
1015;DHT22;8170;48.118;11.628;2022-08-21T04:46:56;14.80;99.90
1015;DHT22;8170;48.118;11.628;2022-08-21T04:48:00;14.70;99.90
1015;DHT22;8170;48.118;11.628;2022-08-21T04:49:04;14.70;99.90
1015;DHT22;8170;48.118;11.628;2022-08-21T04:50:08;14.80;99.90
1015;DHT22;8170;48.118;11.628;2022-08-21T04:51:29;14.80;99.90
1015;DHT22;8170;48.118;11.628;2022-08-21T04:52:34;14.80;99.90
1015;DHT22;8170;48.118;11.628;2022-08-21T04:53:38;14.80;99.90
1015;DHT22;8170;48.118;11.628;2022-08-21T04:54:42;14.80;99.90
1015;DHT22;8170;48.118;11.628;2022-08-21T04:55:47;14.80;99.90
1015;DHT22;8170;48.118;11.628;2022-08-21T04:56:53;14.90;99.90
1015;DHT22;8170;48.118;11.628;2022-08-21T04:57:57;14.90;99.90
1015;DHT22;8170;48.118;11.628;2022-08-21T04:59:05;15.00;99.90
1015;DHT22;8170;48.118;11.628;2022-08-21T05:00:09;15.00;99.90
1015;DHT22;8170;48.118;11.628;2022-08-21T05:01:22;15.10;99.90
1015;DHT22;8170;48.118;11.628;2022-08-21T05:02:25;15.20;99.90
1015;DHT22;8170;48.118;11.628;2022-08-21T05:03:29;15.20;99.90
1015;DHT22;8170;48.118;11.628;2022-08-21T05:04:36;15.30;99.90
1015;DHT22;8170;48.118;11.628;2022-08-21T05:05:41;15.50;99.90
1015;DHT22;8170;48.118;11.628;2022-08-21T05:06:44;15.80;99.90
1015;DHT22;8170;48.118;11.628;2022-08-21T05:07:49;16.10;99.90
1015;DHT22;8170;48.118;11.628;2022-08-21T05:08:53;16.30;99.90
1015;DHT22;8170;48.118;11.628;2022-08-21T05:10:04;16.70;99.90
1015;DHT22;8170;48.118;11.628;2022-08-21T05:11:06;17.20;99.90
1015;DHT22;8170;48.118;11.628;2022-08-21T05:12:10;17.60;99.90
1015;DHT22;8170;48.118;11.628;2022-08-21T05:13:13;18.10;99.90
1015;DHT22;8170;48.118;11.628;2022-08-21T05:14:18;18.50;99.90
1015;DHT22;8170;48.118;11.628;2022-08-21T05:15:21;18.90;99.90
1015;DHT22;8170;48.118;11.628;2022-08-21T05:16:24;19.20;99.90
1015;DHT22;8170;48.118;11.628;2022-08-21T05:17:38;19.70;99.90
1015;DHT22;8170;48.118;11.628;2022-08-21T05:18:41;20.30;99.90
1015;DHT22;8170;48.118;11.628;2022-08-21T05:19:43;20.60;99.90
1015;DHT22;8170;48.118;11.628;2022-08-21T05:20:47;21.10;99.90
1015;DHT22;8170;48.118;11.628;2022-08-21T05:21:49;21.50;99.90
1015;DHT22;8170;48.118;11.628;2022-08-21T05:22:53;21.90;99.90
1015;DHT22;8170;48.118;11.628;2022-08-21T05:23:55;22.40;99.90
1015;DHT22;8170;48.118;11.628;2022-08-21T05:24:59;22.70;99.90
1015;DHT22;8170;48.118;11.628;2022-08-21T05:26:01;23.00;99.90
1015;DHT22;8170;48.118;11.628;2022-08-21T05:27:18;23.20;99.90
1015;DHT22;8170;48.118;11.628;2022-08-21T05:28:20;23.50;99.90
1015;DHT22;8170;48.118;11.628;2022-08-21T05:29:25;23.80;99.90
1015;DHT22;8170;48.118;11.628;2022-08-21T05:30:28;23.80;99.90
1015;DHT22;8170;48.118;11.628;2022-08-21T05:31:31;24.20;99.90
1015;DHT22;8170;48.118;11.628;2022-08-21T05:32:37;24.60;99.90
1015;DHT22;8170;48.118;11.628;2022-08-21T05:33:40;24.90;99.90
1015;DHT22;8170;48.118;11.628;2022-08-21T05:34:44;25.10;99.90
1015;DHT22;8170;48.118;11.628;2022-08-21T05:35:52;25.40;99.90
1015;DHT22;8170;48.118;11.628;2022-08-21T05:36:58;25.70;99.90
1015;DHT22;8170;48.118;11.628;2022-08-21T05:38:07;25.60;99.90
1015;DHT22;8170;48.118;11.628;2022-08-21T05:39:18;25.60;99.90
1015;DHT22;8170;48.118;11.628;2022-08-21T05:40:22;25.70;99.90
1015;DHT22;8170;48.118;11.628;2022-08-21T05:41:25;25.70;99.90
1015;DHT22;8170;48.118;11.628;2022-08-21T05:42:28;25.80;99.90
1015;DHT22;8170;48.118;11.628;2022-08-21T05:43:30;26.10;99.90
1015;DHT22;8170;48.118;11.628;2022-08-21T05:44:36;26.40;99.90
1015;DHT22;8170;48.118;11.628;2022-08-21T05:45:39;26.80;99.90
1015;DHT22;8170;48.118;11.628;2022-08-21T05:46:44;27.00;99.90
1015;DHT22;8170;48.118;11.628;2022-08-21T05:47:47;27.20;99.90
1015;DHT22;8170;48.118;11.628;2022-08-21T05:48:50;27.30;99.90
1015;DHT22;8170;48.118;11.628;2022-08-21T05:49:53;27.30;99.90
1015;DHT22;8170;48.118;11.628;2022-08-21T05:50:55;27.40;99.90
1015;DHT22;8170;48.118;11.628;2022-08-21T05:51:58;27.40;99.90
1015;DHT22;8170;48.118;11.628;2022-08-21T05:53:00;27.40;99.90
1015;DHT22;8170;48.118;11.628;2022-08-21T05:54:10;27.40;99.90
1015;DHT22;8170;48.118;11.628;2022-08-21T05:55:13;27.50;99.90
1015;DHT22;8170;48.118;11.628;2022-08-21T05:56:16;27.70;99.90
1015;DHT22;8170;48.118;11.628;2022-08-21T05:57:23;27.40;99.90
1015;DHT22;8170;48.118;11.628;2022-08-21T05:58:25;27.50;99.90
1015;DHT22;8170;48.118;11.628;2022-08-21T05:59:30;27.40;99.90
1015;DHT22;8170;48.118;11.628;2022-08-21T06:00:37;27.70;99.90
1015;DHT22;8170;48.118;11.628;2022-08-21T06:01:46;27.70;99.90
1015;DHT22;8170;48.118;11.628;2022-08-21T06:02:49;27.70;99.90
1015;DHT22;8170;48.118;11.628;2022-08-21T06:03:52;27.40;99.90
1015;DHT22;8170;48.118;11.628;2022-08-21T06:05:08;27.10;99.90
1015;DHT22;8170;48.118;11.628;2022-08-21T06:06:15;27.00;99.90
1015;DHT22;8170;48.118;11.628;2022-08-21T06:07:18;26.80;99.90
1015;DHT22;8170;48.118;11.628;2022-08-21T06:08:23;26.50;99.90
1015;DHT22;8170;48.118;11.628;2022-08-21T06:09:27;26.30;99.90
1015;DHT22;8170;48.118;11.628;2022-08-21T06:10:29;26.40;99.90
1015;DHT22;8170;48.118;11.628;2022-08-21T06:11:33;26.50;99.90
1015;DHT22;8170;48.118;11.628;2022-08-21T06:12:36;26.60;99.90
1015;DHT22;8170;48.118;11.628;2022-08-21T06:13:43;26.60;99.90
1015;DHT22;8170;48.118;11.628;2022-08-21T06:14:45;26.70;99.90
1015;DHT22;8170;48.118;11.628;2022-08-21T06:15:59;27.20;99.90
1015;DHT22;8170;48.118;11.628;2022-08-21T06:17:03;27.30;99.90
1015;DHT22;8170;48.118;11.628;2022-08-21T06:18:11;27.80;99.90
1015;DHT22;8170;48.118;11.628;2022-08-21T06:19:14;28.00;99.90
1015;DHT22;8170;48.118;11.628;2022-08-21T06:20:17;28.10;99.90
1015;DHT22;8170;48.118;11.628;2022-08-21T06:21:19;28.40;99.90
1015;DHT22;8170;48.118;11.628;2022-08-21T06:22:22;28.50;99.90
1015;DHT22;8170;48.118;11.628;2022-08-21T06:23:24;28.60;99.90
1015;DHT22;8170;48.118;11.628;2022-08-21T06:24:34;28.30;99.90
1015;DHT22;8170;48.118;11.628;2022-08-21T06:25:37;28.10;99.90
1015;DHT22;8170;48.118;11.628;2022-08-21T06:26:40;27.90;99.90
1015;DHT22;8170;48.118;11.628;2022-08-21T06:27:43;28.20;99.90
1015;DHT22;8170;48.118;11.628;2022-08-21T06:28:45;28.50;99.90
1015;DHT22;8170;48.118;11.628;2022-08-21T06:29:49;28.60;99.90
1015;DHT22;8170;48.118;11.628;2022-08-21T06:30:52;28.90;99.90
1015;DHT22;8170;48.118;11.628;2022-08-21T06:31:55;29.10;99.90
1015;DHT22;8170;48.118;11.628;2022-08-21T06:32:57;28.70;99.90
1015;DHT22;8170;48.118;11.628;2022-08-21T06:34:01;29.00;99.90
1015;DHT22;8170;48.118;11.628;2022-08-21T06:35:05;29.30;99.90
1015;DHT22;8170;48.118;11.628;2022-08-21T06:36:08;29.90;99.90
1015;DHT22;8170;48.118;11.628;2022-08-21T06:37:10;30.40;99.90
1015;DHT22;8170;48.118;11.628;2022-08-21T06:38:14;30.80;99.50
1015;DHT22;8170;48.118;11.628;2022-08-21T06:39:16;30.60;99.90
1015;DHT22;8170;48.118;11.628;2022-08-21T06:40:31;31.00;98.60
1015;DHT22;8170;48.118;11.628;2022-08-21T06:41:35;30.30;98.00
1015;DHT22;8170;48.118;11.628;2022-08-21T06:42:40;29.80;99.20
1015;DHT22;8170;48.118;11.628;2022-08-21T06:43:44;30.10;99.30
1015;DHT22;8170;48.118;11.628;2022-08-21T06:44:47;30.00;99.20
1015;DHT22;8170;48.118;11.628;2022-08-21T06:45:49;29.60;99.90
1015;DHT22;8170;48.118;11.628;2022-08-21T06:46:56;29.70;99.50
1015;DHT22;8170;48.118;11.628;2022-08-21T06:47:59;29.50;99.90
1015;DHT22;8170;48.118;11.628;2022-08-21T06:49:03;29.80;99.90
1015;DHT22;8170;48.118;11.628;2022-08-21T06:50:08;30.10;99.50
1015;DHT22;8170;48.118;11.628;2022-08-21T06:51:10;29.90;99.50
1015;DHT22;8170;48.118;11.628;2022-08-21T06:52:14;29.60;99.90